Time;durP1;ratioP1;P1;durP2;ratioP2;P2;SDS_P1;SDS_P2;PMS_P1;PMS_P2;Temp;Humidity;BMP_temperature;BMP_pressure;BME280_temperature;BME280_humidity;BME280_pressure;Samples;Min_cycle;Max_cycle;Signal;HPM_P1;HPM_P2
2021/12/11 00:01:43;;;;;;;8.57;2.65;;;;;;;;;;143740;608;46051;-78
2021/12/11 00:04:15;;;;;;;10.15;3.00;;;;;;;;;;143740;625;46918;-79
2021/12/11 00:06:53;;;;;;;9.90;3.22;;;;;;;;;;143740;619;46021;-79
2021/12/11 00:09:45;;;;;;;10.23;3.50;;;;;;;;;;143739;593;46012;-79
2021/12/11 00:12:25;;;;;;;10.30;4.37;;;;;;;;;;143739;589;46014;-79
2021/12/11 00:14:58;;;;;;;8.77;3.28;;;;;;;;;;143737;572;47021;-79
2021/12/11 00:17:31;;;;;;;15.15;4.03;;;;;;;;;;143743;591;46020;-79
2021/12/11 00:20:05;;;;;;;8.15;3.30;;;;;;;;;;143739;735;46012;-78
2021/12/11 00:22:33;;;;;;;7.18;2.17;;;;;;;;;;143740;620;47023;-79
2021/12/11 00:25:05;;;;;;;11.05;2.50;;;;;;;;;;143741;855;46013;-79
2021/12/11 00:27:35;;;;;;;9.13;1.98;;;;;;;;;;143738;570;47020;-77
2021/12/11 00:30:03;;;;;;;7.18;1.77;;;;;;;;;;143742;598;46012;-79
2021/12/11 00:32:32;;;;;;;11.57;2.33;;;;;;;;;;143741;564;46022;-79
2021/12/11 00:35:12;;;;;;;10.48;2.70;;;;;;;;;;143736;571;46012;-79
2021/12/11 00:37:39;;;;;;;11.20;3.28;;;;;;;;;;143738;815;47020;-78
2021/12/11 00:40:27;;;;;;;6.28;2.50;;;;;;;;;;143737;579;46020;-79
2021/12/11 00:42:58;;;;;;;8.07;2.80;;;;;;;;;;143742;611;47020;-80
2021/12/11 00:45:29;;;;;;;9.43;2.45;;;;;;;;;;143741;700;46014;-78
2021/12/11 00:48:00;;;;;;;13.10;3.53;;;;;;;;;;143740;814;47020;-78
2021/12/11 00:50:35;;;;;;;14.25;2.83;;;;;;;;;;143747;626;45020;-79
2021/12/11 00:53:15;;;;;;;6.57;2.90;;;;;;;;;;143745;591;47023;-79
2021/12/11 00:55:50;;;;;;;12.52;2.80;;;;;;;;;;143747;569;45020;-79
2021/12/11 00:58:31;;;;;;;10.18;3.00;;;;;;;;;;143747;628;46021;-80
2021/12/11 01:01:11;;;;;;;16.05;3.17;;;;;;;;;;143750;577;46020;-78
2021/12/11 01:03:43;;;;;;;10.93;2.72;;;;;;;;;;143744;576;47020;-79
2021/12/11 01:06:25;;;;;;;9.40;2.37;;;;;;;;;;143747;592;45021;-79
2021/12/11 01:09:01;;;;;;;6.80;1.83;;;;;;;;;;143748;671;45020;-79
2021/12/11 01:11:48;;;;;;;7.97;2.20;;;;;;;;;;143748;698;45032;-79
2021/12/11 01:14:54;;;;;;;8.20;2.12;;;;;;;;;;143749;681;46023;-80
2021/12/11 01:17:59;;;;;;;10.98;2.80;;;;;;;;;;143746;565;45916;-79
2021/12/11 01:20:45;;;;;;;11.40;2.97;;;;;;;;;;143740;583;46021;-79
2021/12/11 01:23:34;;;;;;;7.97;2.17;;;;;;;;;;143750;606;45021;-80
2021/12/11 01:26:03;;;;;;;5.28;2.05;;;;;;;;;;143740;620;47022;-77
2021/12/11 01:28:32;;;;;;;15.60;2.92;;;;;;;;;;143747;573;45917;-79
2021/12/11 01:31:01;;;;;;;13.57;3.47;;;;;;;;;;143746;569;46020;-78
2021/12/11 01:33:30;;;;;;;6.43;1.75;;;;;;;;;;143748;614;45020;-79
2021/12/11 01:35:58;;;;;;;6.62;2.30;;;;;;;;;;143745;570;47022;-78
2021/12/11 01:38:36;;;;;;;10.27;2.40;;;;;;;;;;143746;602;45916;-79
2021/12/11 01:41:23;;;;;;;9.70;2.25;;;;;;;;;;143740;581;46020;-81
2021/12/11 01:43:56;;;;;;;11.73;2.28;;;;;;;;;;143748;577;46021;-79
2021/12/11 01:46:25;;;;;;;5.70;2.40;;;;;;;;;;143741;602;46022;-80
2021/12/11 01:48:58;;;;;;;15.05;2.53;;;;;;;;;;143743;563;46020;-79
2021/12/11 01:51:52;;;;;;;4.53;2.30;;;;;;;;;;143740;647;46021;-80
2021/12/11 01:54:31;;;;;;;11.05;2.45;;;;;;;;;;143738;577;46018;-79
2021/12/11 01:57:04;;;;;;;4.07;1.65;;;;;;;;;;143738;595;46022;-79
2021/12/11 01:59:42;;;;;;;8.85;2.10;;;;;;;;;;143741;610;46012;-80
2021/12/11 02:02:13;;;;;;;12.15;2.70;;;;;;;;;;143743;767;47020;-79
2021/12/11 02:04:46;;;;;;;10.98;2.85;;;;;;;;;;143739;588;46020;-80
2021/12/11 02:07:16;;;;;;;7.65;2.28;;;;;;;;;;143741;603;46016;-80
2021/12/11 02:09:50;;;;;;;11.65;2.55;;;;;;;;;;143741;616;46012;-80
2021/12/11 02:12:26;;;;;;;8.50;1.70;;;;;;;;;;143739;570;46036;-81
2021/12/11 02:14:54;;;;;;;7.75;2.05;;;;;;;;;;143744;614;46012;-79
2021/12/11 02:17:44;;;;;;;19.35;3.05;;;;;;;;;;143745;605;46020;-80
2021/12/11 02:20:22;;;;;;;15.18;2.85;;;;;;;;;;143730;566;48020;-79
2021/12/11 02:22:52;;;;;;;13.48;2.05;;;;;;;;;;143741;632;46020;-79
2021/12/11 02:25:28;;;;;;;10.07;2.00;;;;;;;;;;143738;595;46012;-79
2021/12/11 02:28:08;;;;;;;7.87;2.30;;;;;;;;;;143742;606;46022;-79
2021/12/11 02:31:04;;;;;;;8.00;2.45;;;;;;;;;;143740;626;46012;-80
2021/12/11 02:33:40;;;;;;;6.15;2.12;;;;;;;;;;143744;596;46020;-80
2021/12/11 02:36:34;;;;;;;6.93;2.30;;;;;;;;;;143746;875;46018;-80
2021/12/11 02:39:16;;;;;;;;;;;;;;;;;;143748;982;46022;-79
2021/12/11 02:42:15;;;;;;;10.60;2.20;;;;;;;;;;143746;620;46021;-79
2021/12/11 02:45:08;;;;;;;16.45;2.95;;;;;;;;;;143740;609;46021;-79
2021/12/11 02:48:04;;;;;;;12.48;2.05;;;;;;;;;;143740;605;46018;-81
2021/12/11 02:50:47;;;;;;;6.62;1.70;;;;;;;;;;143739;615;47022;-78
2021/12/11 02:53:35;;;;;;;9.80;2.42;;;;;;;;;;143743;601;46010;-79
2021/12/11 02:56:22;;;;;;;10.05;2.28;;;;;;;;;;143741;590;47020;-79
2021/12/11 02:58:53;;;;;;;7.25;2.22;;;;;;;;;;143740;595;46010;-79
2021/12/11 03:01:42;;;;;;;8.27;2.30;;;;;;;;;;143737;610;47020;-79
2021/12/11 03:04:20;;;;;;;13.85;1.85;;;;;;;;;;143744;615;46010;-79
2021/12/11 03:06:50;;;;;;;9.55;2.40;;;;;;;;;;143739;589;47021;-79
2021/12/11 03:09:23;;;;;;;13.95;2.87;;;;;;;;;;143748;579;46020;-80
2021/12/11 03:11:59;;;;;;;8.20;3.83;;;;;;;;;;143739;594;47022;-79
2021/12/11 03:14:27;;;;;;;13.65;1.98;;;;;;;;;;143742;623;46010;-80
2021/12/11 03:16:56;;;;;;;10.43;2.37;;;;;;;;;;143741;611;46020;-79
2021/12/11 03:19:29;;;;;;;11.73;2.70;;;;;;;;;;143742;605;46020;-79
2021/12/11 03:21:58;;;;;;;10.32;1.98;;;;;;;;;;143739;570;46020;-80
2021/12/11 03:24:27;;;;;;;10.00;2.83;;;;;;;;;;143739;603;46010;-79
2021/12/11 03:26:57;;;;;;;7.55;2.17;;;;;;;;;;143742;589;46020;-79
2021/12/11 03:29:24;;;;;;;15.32;2.28;;;;;;;;;;143743;564;46010;-79
2021/12/11 03:31:51;;;;;;;6.45;1.83;;;;;;;;;;143739;581;47020;-81
2021/12/11 03:34:22;;;;;;;9.27;2.45;;;;;;;;;;143744;594;46010;-80
2021/12/11 03:36:50;;;;;;;7.90;2.50;;;;;;;;;;143743;569;47020;-80
2021/12/11 03:39:26;;;;;;;6.95;2.00;;;;;;;;;;143736;587;46012;-80
2021/12/11 03:41:54;;;;;;;9.90;1.87;;;;;;;;;;143740;585;46020;-79
2021/12/11 03:44:22;;;;;;;7.85;1.48;;;;;;;;;;143740;571;46010;-81
2021/12/11 03:46:53;;;;;;;7.78;2.12;;;;;;;;;;143739;565;46020;-79
2021/12/11 03:49:23;;;;;;;11.93;1.95;;;;;;;;;;143745;595;46010;-80
2021/12/11 03:51:54;;;;;;;6.80;1.95;;;;;;;;;;143755;564;46020;-79
2021/12/11 03:54:38;;;;;;;13.35;3.30;;;;;;;;;;143753;576;45020;-79
2021/12/11 03:57:15;;;;;;;14.00;2.85;;;;;;;;;;143756;598;46021;-79
2021/12/11 03:59:47;;;;;;;7.90;2.70;;;;;;;;;;143757;575;45020;-80
2021/12/11 04:02:18;;;;;;;11.48;2.20;;;;;;;;;;143756;569;45022;-80
2021/12/11 04:04:49;;;;;;;9.95;2.20;;;;;;;;;;143753;570;45021;-79
2021/12/11 04:07:24;;;;;;;6.05;1.65;;;;;;;;;;143756;598;46020;-80
2021/12/11 04:09:52;;;;;;;12.70;1.80;;;;;;;;;;143757;635;45020;-79
2021/12/11 04:12:24;;;;;;;11.98;2.30;;;;;;;;;;143755;570;46022;-79
2021/12/11 04:14:53;;;;;;;11.70;2.53;;;;;;;;;;143753;634;45917;-79
2021/12/11 04:17:23;;;;;;;13.25;2.12;;;;;;;;;;143755;570;46020;-80
2021/12/11 04:19:57;;;;;;;8.27;1.70;;;;;;;;;;143756;586;45047;-79
2021/12/11 04:22:25;;;;;;;7.45;1.50;;;;;;;;;;143747;627;47023;-80
2021/12/11 04:24:53;;;;;;;7.60;1.60;;;;;;;;;;143749;569;45020;-81
2021/12/11 04:27:21;;;;;;;4.95;1.65;;;;;;;;;;143756;580;46021;-79
2021/12/11 04:29:50;;;;;;;8.10;1.70;;;;;;;;;;143759;615;45020;-80
2021/12/11 04:32:18;;;;;;;7.78;1.83;;;;;;;;;;143756;581;46022;-80
2021/12/11 04:34:46;;;;;;;8.98;1.52;;;;;;;;;;143757;573;45021;-79
2021/12/11 04:37:29;;;;;;;7.65;1.87;;;;;;;;;;143757;607;46020;-79
2021/12/11 04:40:01;;;;;;;13.27;2.80;;;;;;;;;;143757;620;46020;-78
2021/12/11 04:42:49;;;;;;;6.30;1.27;;;;;;;;;;143756;599;46022;-80
2021/12/11 04:45:45;;;;;;;8.23;1.80;;;;;;;;;;143754;596;45020;-80
2021/12/11 04:48:27;;;;;;;9.38;1.80;;;;;;;;;;143756;588;46020;-81
2021/12/11 04:51:08;;;;;;;8.57;2.65;;;;;;;;;;143752;567;46021;-80
2021/12/11 04:54:05;;;;;;;9.13;2.17;;;;;;;;;;143744;621;47022;-81
2021/12/11 04:57:03;;;;;;;7.32;1.87;;;;;;;;;;143744;574;46011;-80
2021/12/11 05:05:43;;;;;;;6.43;1.87;;;;;;;;;;143741;564;46021;-79
2021/12/11 05:10:54;;;;;;;7.22;2.55;;;;;;;;;;143743;589;46050;-79
2021/12/11 05:13:23;;;;;;;8.18;2.03;;;;;;;;;;143743;629;46010;-79
2021/12/11 05:15:52;;;;;;;14.52;1.98;;;;;;;;;;143741;569;46022;-79
2021/12/11 05:18:24;;;;;;;14.98;2.70;;;;;;;;;;143739;564;46010;-79
2021/12/11 05:20:55;;;;;;;10.93;1.90;;;;;;;;;;143743;606;46021;-80
2021/12/11 05:23:24;;;;;;;7.28;1.90;;;;;;;;;;143747;570;45020;-81
2021/12/11 05:25:51;;;;;;;8.55;3.80;;;;;;;;;;143742;598;46022;-79
2021/12/11 05:28:21;;;;;;;7.07;1.92;;;;;;;;;;143742;595;46010;-81
2021/12/11 05:30:53;;;;;;;6.75;1.85;;;;;;;;;;143747;639;46020;-80
2021/12/11 05:33:23;;;;;;;8.35;1.90;;;;;;;;;;143745;632;46011;-80
2021/12/11 05:35:50;;;;;;;9.73;1.58;;;;;;;;;;143745;620;47020;-80
2021/12/11 05:38:19;;;;;;;7.70;2.40;;;;;;;;;;143743;816;46010;-80
2021/12/11 05:40:50;;;;;;;10.20;2.25;;;;;;;;;;143746;610;47020;-79
2021/12/11 05:43:18;;;;;;;10.30;2.45;;;;;;;;;;143741;755;46018;-80
2021/12/11 05:45:46;;;;;;;11.52;2.37;;;;;;;;;;143740;569;47022;-80
2021/12/11 05:48:13;;;;;;;7.28;1.58;;;;;;;;;;143741;629;46021;-80
2021/12/11 05:50:47;;;;;;;4.93;1.73;;;;;;;;;;143741;564;47021;-81
2021/12/11 05:53:17;;;;;;;11.25;2.42;;;;;;;;;;143745;585;46010;-79
2021/12/11 05:55:46;;;;;;;8.10;2.25;;;;;;;;;;143740;580;47022;-81
2021/12/11 05:58:21;;;;;;;10.40;1.87;;;;;;;;;;143738;595;46010;-80
2021/12/11 06:01:04;;;;;;;14.95;2.20;;;;;;;;;;143743;569;46020;-79
2021/12/11 06:03:38;;;;;;;9.27;2.72;;;;;;;;;;143742;635;46019;-80
2021/12/11 06:06:09;;;;;;;7.05;2.45;;;;;;;;;;143743;570;47023;-80
2021/12/11 06:08:36;;;;;;;17.55;5.20;;;;;;;;;;143745;592;46020;-80
2021/12/11 06:11:04;;;;;;;10.10;3.25;;;;;;;;;;143742;588;46021;-80
2021/12/11 06:13:32;;;;;;;8.57;2.87;;;;;;;;;;143742;588;46010;-81
2021/12/11 06:16:01;;;;;;;8.10;1.77;;;;;;;;;;143743;566;46020;-81
2021/12/11 06:18:28;;;;;;;7.60;1.80;;;;;;;;;;143744;608;46011;-79
2021/12/11 06:20:56;;;;;;;8.85;2.28;;;;;;;;;;143744;571;47021;-79
2021/12/11 06:23:22;;;;;;;12.52;2.67;;;;;;;;;;143743;571;47020;-79
2021/12/11 06:25:51;;;;;;;13.20;2.22;;;;;;;;;;143740;579;47020;-80
2021/12/11 06:28:18;;;;;;;15.68;1.92;;;;;;;;;;143740;585;46010;-81
2021/12/11 06:30:45;;;;;;;15.68;1.73;;;;;;;;;;143743;603;46020;-80
2021/12/11 06:33:12;;;;;;;17.52;2.03;;;;;;;;;;143741;592;46011;-80
2021/12/11 06:36:07;;;;;;;5.15;1.67;;;;;;;;;;143741;617;46023;-79
2021/12/11 06:38:36;;;;;;;10.65;2.10;;;;;;;;;;143745;628;46010;-81
2021/12/11 06:41:05;;;;;;;7.78;2.00;;;;;;;;;;143744;619;46020;-79
2021/12/11 06:43:32;;;;;;;15.73;2.20;;;;;;;;;;143741;572;47010;-78
2021/12/11 06:45:59;;;;;;;9.30;3.25;;;;;;;;;;143740;575;47020;-79
2021/12/11 06:48:26;;;;;;;13.57;2.62;;;;;;;;;;143740;603;46010;-79
2021/12/11 06:50:54;;;;;;;8.65;1.85;;;;;;;;;;143742;616;47021;-79
2021/12/11 06:53:29;;;;;;;7.55;1.85;;;;;;;;;;143735;625;48020;-78
2021/12/11 06:55:56;;;;;;;18.42;2.78;;;;;;;;;;143746;570;46021;-78
2021/12/11 06:58:31;;;;;;;7.22;2.17;;;;;;;;;;143740;570;47021;-78
2021/12/11 07:00:59;;;;;;;4.72;1.75;;;;;;;;;;143745;574;46020;-78
2021/12/11 07:03:27;;;;;;;8.02;1.77;;;;;;;;;;143745;617;46011;-78
2021/12/11 07:05:55;;;;;;;6.90;1.52;;;;;;;;;;143742;605;46023;-80
2021/12/11 07:08:23;;;;;;;10.32;1.77;;;;;;;;;;143737;563;46916;-79
2021/12/11 07:11:00;;;;;;;7.45;2.22;;;;;;;;;;143742;593;47020;-77
2021/12/11 07:13:41;;;;;;;8.82;2.60;;;;;;;;;;143743;604;47020;-80
2021/12/11 07:16:08;;;;;;;8.10;1.42;;;;;;;;;;143741;564;46014;-79
2021/12/11 07:18:36;;;;;;;9.27;1.80;;;;;;;;;;143744;574;46010;-77
2021/12/11 07:21:05;;;;;;;9.23;1.52;;;;;;;;;;143744;585;47020;-80
2021/12/11 07:23:36;;;;;;;4.90;1.23;;;;;;;;;;143742;569;46010;-77
2021/12/11 07:26:17;;;;;;;9.55;1.62;;;;;;;;;;143745;576;46022;-79
2021/12/11 07:28:49;;;;;;;5.78;1.60;;;;;;;;;;143740;614;46012;-77
2021/12/11 07:31:17;;;;;;;5.87;1.17;;;;;;;;;;143742;622;46020;-77
2021/12/11 07:33:47;;;;;;;8.40;1.25;;;;;;;;;;143747;576;46019;-78
2021/12/11 07:36:17;;;;;;;6.30;1.80;;;;;;;;;;143742;586;47022;-78
2021/12/11 07:38:46;;;;;;;6.68;2.12;;;;;;;;;;143743;589;46916;-78
2021/12/11 07:41:19;;;;;;;4.57;1.80;;;;;;;;;;143740;588;47012;-78
2021/12/11 07:43:50;;;;;;;7.70;1.90;;;;;;;;;;143742;589;46018;-77
2021/12/11 07:46:26;;;;;;;7.70;2.25;;;;;;;;;;143745;705;46020;-78
2021/12/11 07:48:54;;;;;;;8.80;1.50;;;;;;;;;;143743;611;46010;-79
2021/12/11 07:51:22;;;;;;;12.50;1.73;;;;;;;;;;143749;628;46012;-78
2021/12/11 07:53:49;;;;;;;6.75;1.75;;;;;;;;;;143741;563;46010;-79
2021/12/11 07:56:20;;;;;;;8.07;1.80;;;;;;;;;;143741;610;46022;-78
2021/12/11 07:58:50;;;;;;;7.25;2.55;;;;;;;;;;143742;575;46916;-78
2021/12/11 08:01:17;;;;;;;6.03;2.42;;;;;;;;;;143748;588;46020;-79
2021/12/11 08:03:44;;;;;;;6.07;1.62;;;;;;;;;;143742;577;46021;-78
2021/12/11 08:06:14;;;;;;;13.93;2.28;;;;;;;;;;143744;583;47020;-77
2021/12/11 08:08:43;;;;;;;3.90;1.83;;;;;;;;;;143739;579;46020;-78
2021/12/11 08:11:21;;;;;;;8.80;3.03;;;;;;;;;;143745;617;46021;-78
2021/12/11 08:14:01;;;;;;;6.07;2.05;;;;;;;;;;143747;573;46010;-80
2021/12/11 08:16:33;;;;;;;14.77;1.73;;;;;;;;;;143746;615;46022;-80
2021/12/11 08:19:03;;;;;;;7.77;2.07;;;;;;;;;;143740;575;46012;-80
2021/12/11 08:21:30;;;;;;;7.55;2.50;;;;;;;;;;143740;603;47020;-79
2021/12/11 08:24:04;;;;;;;7.72;2.70;;;;;;;;;;143742;595;46018;-81
2021/12/11 08:26:37;;;;;;;6.62;2.10;;;;;;;;;;143743;614;47023;-81
2021/12/11 08:29:06;;;;;;;5.93;1.62;;;;;;;;;;143743;589;46010;-79
2021/12/11 08:31:33;;;;;;;15.00;2.53;;;;;;;;;;143743;580;47020;-79
2021/12/11 08:34:00;;;;;;;4.47;2.12;;;;;;;;;;143743;569;47021;-79
2021/12/11 08:36:27;;;;;;;4.43;1.30;;;;;;;;;;143743;623;47022;-79
2021/12/11 08:38:54;;;;;;;6.32;1.75;;;;;;;;;;143743;605;46916;-80
2021/12/11 08:41:23;;;;;;;3.20;1.42;;;;;;;;;;143745;683;47021;-81
2021/12/11 08:43:57;;;;;;;7.32;1.67;;;;;;;;;;143743;569;46010;-80
2021/12/11 08:46:29;;;;;;;15.75;2.40;;;;;;;;;;143741;580;47021;-80
2021/12/11 08:48:59;;;;;;;10.13;2.53;;;;;;;;;;143740;580;46010;-79
2021/12/11 08:51:39;;;;;;;8.40;2.00;;;;;;;;;;143742;617;46020;-79
2021/12/11 08:54:07;;;;;;;5.25;1.35;;;;;;;;;;143742;636;47020;-79
2021/12/11 08:57:57;;;;;;;;;;;;;;;;;;;;;
2021/12/11 09:01:00;;;;;;;8.35;2.33;;;;;;;;;;143744;563;46020;-78
2021/12/11 09:04:17;;;;;;;9.20;2.17;;;;;;;;;;143741;566;47021;-80
2021/12/11 09:07:24;;;;;;;9.80;2.15;;;;;;;;;;143747;580;45048;-80
2021/12/11 09:10:23;;;;;;;6.93;1.87;;;;;;;;;;143742;589;46027;-77
2021/12/11 09:13:10;;;;;;;4.68;1.48;;;;;;;;;;143748;590;45915;-79
2021/12/11 09:15:55;;;;;;;11.05;1.65;;;;;;;;;;143741;703;46020;-80
2021/12/11 09:18:56;;;;;;;8.18;2.25;;;;;;;;;;143739;598;46018;-79
2021/12/11 09:22:10;;;;;;;10.23;2.10;;;;;;;;;;143742;645;46022;-79
2021/12/11 09:24:51;;;;;;;6.53;1.92;;;;;;;;;;143739;680;46021;-76
2021/12/11 09:27:29;;;;;;;9.27;2.72;;;;;;;;;;143743;620;46020;-78
2021/12/11 09:30:37;;;;;;;7.00;3.15;;;;;;;;;;143741;569;47018;-78
2021/12/11 09:33:16;;;;;;;6.75;3.10;;;;;;;;;;143742;595;46018;-80
2021/12/11 09:35:55;;;;;;;9.38;3.42;;;;;;;;;;143740;569;46010;-77
2021/12/11 09:38:32;;;;;;;7.60;2.00;;;;;;;;;;143742;644;46020;-78
2021/12/11 09:40:58;;;;;;;7.37;2.50;;;;;;;;;;143742;619;46021;-78
2021/12/11 09:44:02;;;;;;;3.97;1.92;;;;;;;;;;143737;576;47022;-78
2021/12/11 09:46:36;;;;;;;10.48;3.90;;;;;;;;;;143743;672;46021;-78
2021/12/11 09:49:05;;;;;;;10.02;3.55;;;;;;;;;;143739;630;46021;-79
2021/12/11 09:51:40;;;;;;;7.65;2.12;;;;;;;;;;143738;569;46010;-77
2021/12/11 09:54:22;;;;;;;9.38;2.03;;;;;;;;;;143741;712;47021;-78
2021/12/11 09:57:06;;;;;;;10.75;2.42;;;;;;;;;;143740;574;46918;-77
2021/12/11 09:59:40;;;;;;;10.00;3.12;;;;;;;;;;143738;580;46018;-78
2021/12/11 10:02:11;;;;;;;9.85;2.37;;;;;;;;;;143739;626;46011;-80
2021/12/11 10:04:46;;;;;;;9.80;2.10;;;;;;;;;;143738;623;47020;-77
2021/12/11 10:07:31;;;;;;;10.68;4.35;;;;;;;;;;143743;674;46010;-77
2021/12/11 10:10:22;;;;;;;10.05;3.08;;;;;;;;;;143738;716;47021;-80
2021/12/11 10:12:54;;;;;;;8.70;4.53;;;;;;;;;;143739;567;46010;-78
2021/12/11 10:15:30;;;;;;;13.80;3.45;;;;;;;;;;143739;575;47022;-78
2021/12/11 10:18:03;;;;;;;17.98;3.37;;;;;;;;;;143738;569;46010;-79
2021/12/11 10:20:38;;;;;;;23.45;3.80;;;;;;;;;;143739;610;46020;-79
2021/12/11 10:23:07;;;;;;;9.63;2.17;;;;;;;;;;143741;598;46034;-77
2021/12/11 10:25:36;;;;;;;10.85;2.58;;;;;;;;;;143741;610;47023;-78
2021/12/11 10:28:09;;;;;;;11.00;2.80;;;;;;;;;;143737;657;46917;-78
2021/12/11 10:30:41;;;;;;;7.57;3.60;;;;;;;;;;143740;635;46020;-76
2021/12/11 10:33:09;;;;;;;11.93;2.08;;;;;;;;;;143742;598;46010;-76
2021/12/11 10:35:41;;;;;;;17.37;3.78;;;;;;;;;;143736;650;47022;-77
2021/12/11 10:38:08;;;;;;;8.25;2.40;;;;;;;;;;143740;572;46021;-77
2021/12/11 10:40:45;;;;;;;10.32;3.28;;;;;;;;;;143741;570;47021;-77
2021/12/11 10:43:20;;;;;;;15.73;6.93;;;;;;;;;;143741;577;46047;-76
2021/12/11 10:45:48;;;;;;;24.17;12.45;;;;;;;;;;143736;569;47022;-76
2021/12/11 10:48:21;;;;;;;15.27;4.18;;;;;;;;;;143739;674;46010;-76
2021/12/11 10:50:58;;;;;;;13.45;3.10;;;;;;;;;;143741;577;46020;-76
2021/12/11 10:53:37;;;;;;;;;;;;;;;;;;;;;
2021/12/11 10:56:06;;;;;;;12.82;2.70;;;;;;;;;;143741;569;46025;-78
2021/12/11 10:58:41;;;;;;;13.10;4.00;;;;;;;;;;143736;607;46010;-77
2021/12/11 11:01:18;;;;;;;16.60;6.35;;;;;;;;;;143739;583;47020;-77
2021/12/11 11:03:52;;;;;;;17.48;7.95;;;;;;;;;;143740;582;46018;-79
2021/12/11 11:06:19;;;;;;;21.73;6.05;;;;;;;;;;143737;744;47022;-77
2021/12/11 11:08:46;;;;;;;19.50;5.87;;;;;;;;;;143741;709;46011;-79
2021/12/11 11:11:16;;;;;;;18.33;7.07;;;;;;;;;;143739;587;47020;-77
2021/12/11 11:13:45;;;;;;;15.02;4.53;;;;;;;;;;143742;609;47020;-77
2021/12/11 11:16:14;;;;;;;12.48;3.33;;;;;;;;;;143739;581;46042;-79
2021/12/11 11:18:40;;;;;;;16.67;5.95;;;;;;;;;;143737;571;46010;-77
2021/12/11 11:21:16;;;;;;;15.65;3.70;;;;;;;;;;143737;617;47020;-76
2021/12/11 11:23:46;;;;;;;13.70;3.90;;;;;;;;;;143739;733;46010;-77
2021/12/11 11:26:21;;;;;;;12.90;4.45;;;;;;;;;;143738;569;47023;-77
2021/12/11 11:28:48;;;;;;;17.33;4.57;;;;;;;;;;143735;692;46917;-79
2021/12/11 11:31:26;;;;;;;15.93;4.32;;;;;;;;;;143740;577;47020;-77
2021/12/11 11:33:54;;;;;;;20.40;4.00;;;;;;;;;;143739;718;46010;-77
2021/12/11 11:36:26;;;;;;;13.75;3.53;;;;;;;;;;143741;593;46022;-77
2021/12/11 11:38:59;;;;;;;13.68;3.67;;;;;;;;;;143740;605;45918;-78
2021/12/11 11:41:59;;;;;;;18.83;9.00;;;;;;;;;;143745;616;45021;-77
2021/12/11 11:44:27;;;;;;;26.98;10.82;;;;;;;;;;143742;587;46020;-77
2021/12/11 11:46:58;;;;;;;14.55;5.25;;;;;;;;;;143740;596;47023;-76
2021/12/11 11:49:26;;;;;;;13.62;5.90;;;;;;;;;;143738;589;46010;-77
2021/12/11 11:52:00;;;;;;;19.02;4.55;;;;;;;;;;143739;600;46020;-77
2021/12/11 11:54:29;;;;;;;14.27;7.10;;;;;;;;;;143737;573;46010;-77
2021/12/11 11:57:38;;;;;;;32.92;17.62;;;;;;;;;;143738;664;46022;-77
2021/12/11 12:00:18;;;;;;;15.88;5.80;;;;;;;;;;143738;564;46010;-78
2021/12/11 12:02:45;;;;;;;13.98;6.93;;;;;;;;;;143739;571;46046;-78
2021/12/11 12:05:14;;;;;;;12.55;5.10;;;;;;;;;;143737;639;46010;-78
2021/12/11 12:07:46;;;;;;;12.95;6.47;;;;;;;;;;143739;589;47022;-77
2021/12/11 12:10:25;;;;;;;10.68;5.30;;;;;;;;;;143737;685;46010;-77
2021/12/11 12:12:53;;;;;;;11.57;5.85;;;;;;;;;;143738;593;47018;-77
2021/12/11 12:15:36;;;;;;;21.33;7.20;;;;;;;;;;143740;686;46011;-78
2021/12/11 12:18:27;;;;;;;11.80;5.85;;;;;;;;;;143738;644;47023;-78
2021/12/11 12:20:55;;;;;;;12.32;5.43;;;;;;;;;;143739;585;46010;-78
2021/12/11 12:23:24;;;;;;;7.68;4.70;;;;;;;;;;143740;584;46021;-78
2021/12/11 12:25:53;;;;;;;8.45;4.68;;;;;;;;;;143745;667;46010;-78
2021/12/11 12:28:26;;;;;;;10.15;3.17;;;;;;;;;;143739;577;47020;-79
2021/12/11 12:30:57;;;;;;;10.57;4.30;;;;;;;;;;143737;591;46010;-78
2021/12/11 12:33:24;;;;;;;7.15;3.35;;;;;;;;;;143739;624;46020;-78
2021/12/11 12:35:52;;;;;;;15.43;4.80;;;;;;;;;;143745;678;46010;-79
2021/12/11 12:38:25;;;;;;;17.10;5.43;;;;;;;;;;143740;658;47022;-78
2021/12/11 12:41:34;;;;;;;11.00;5.20;;;;;;;;;;143739;705;46020;-78
2021/12/11 12:44:17;;;;;;;15.10;5.47;;;;;;;;;;143740;576;47020;-78
2021/12/11 12:46:52;;;;;;;12.50;5.82;;;;;;;;;;143738;639;46011;-79
2021/12/11 12:49:26;;;;;;;15.27;7.37;;;;;;;;;;143740;571;46046;-78
2021/12/11 12:52:08;;;;;;;11.40;6.03;;;;;;;;;;143752;570;45915;-79
2021/12/11 12:54:35;;;;;;;22.83;12.25;;;;;;;;;;143754;663;46021;-78
2021/12/11 12:57:14;;;;;;;19.90;12.00;;;;;;;;;;143756;656;45020;-77
2021/12/11 12:59:50;;;;;;;13.73;7.57;;;;;;;;;;143746;610;47022;-78
2021/12/11 13:02:20;;;;;;;12.60;5.18;;;;;;;;;;143751;564;45021;-77
2021/12/11 13:04:54;;;;;;;13.73;7.22;;;;;;;;;;143754;581;46020;-77
2021/12/11 13:07:22;;;;;;;29.87;9.18;;;;;;;;;;143755;601;45021;-78
2021/12/11 13:10:14;;;;;;;;;;;;;;;;;;;;;
2021/12/11 13:12:47;;;;;;;15.63;8.45;;;;;;;;;;143752;629;46020;-78
2021/12/11 13:15:42;;;;;;;;;;;;;;;;;;143761;973;45021;-77
2021/12/11 13:18:14;;;;;;;12.45;4.78;;;;;;;;;;143761;679;45035;-77
2021/12/11 13:20:54;;;;;;;15.30;5.95;;;;;;;;;;143754;592;46022;-78
2021/12/11 13:23:24;;;;;;;12.93;5.45;;;;;;;;;;143746;598;46917;-79
2021/12/11 13:26:00;;;;;;;15.15;6.35;;;;;;;;;;143755;594;46020;-78
2021/12/11 13:28:54;;;;;;;;;;;;;;;;;;;;;
2021/12/11 13:31:28;;;;;;;;;;;;;;;;;;143760;981;46022;-77
2021/12/11 13:34:10;;;;;;;;;;;;;;;;;;;;;
2021/12/11 13:36:49;;;;;;;15.27;8.95;;;;;;;;;;143751;603;45022;-77
2021/12/11 13:39:37;;;;;;;18.98;13.13;;;;;;;;;;143757;594;45044;-77
2021/12/11 13:42:06;;;;;;;21.25;12.20;;;;;;;;;;143755;616;46022;-78
2021/12/11 13:44:50;;;;;;;20.40;12.52;;;;;;;;;;143747;592;46020;-78
2021/12/11 13:47:23;;;;;;;31.62;20.33;;;;;;;;;;143757;575;45021;-77
2021/12/11 13:50:02;;;;;;;35.50;17.87;;;;;;;;;;143752;600;45041;-77
2021/12/11 13:52:35;;;;;;;30.25;20.20;;;;;;;;;;143740;593;46021;-76
2021/12/11 13:55:04;;;;;;;36.85;21.48;;;;;;;;;;143738;583;46012;-77
2021/12/11 13:57:31;;;;;;;28.02;15.25;;;;;;;;;;143737;571;46012;-77
2021/12/11 14:00:04;;;;;;;15.38;8.57;;;;;;;;;;143738;582;46019;-77
2021/12/11 14:02:41;;;;;;;;;;;;;;;;;;;;;
2021/12/11 14:05:11;;;;;;;23.02;12.02;;;;;;;;;;143738;671;47020;-77
2021/12/11 14:07:42;;;;;;;18.12;9.95;;;;;;;;;;143741;569;47020;-78
2021/12/11 14:10:31;;;;;;;16.90;8.93;;;;;;;;;;143746;608;45020;-77
2021/12/11 14:13:07;;;;;;;19.08;8.35;;;;;;;;;;143742;569;46020;-78
2021/12/11 14:15:37;;;;;;;21.15;9.77;;;;;;;;;;143739;577;46011;-78
2021/12/11 14:18:19;;;;;;;18.58;7.90;;;;;;;;;;143739;645;47020;-78
2021/12/11 14:20:50;;;;;;;16.15;10.38;;;;;;;;;;143739;622;46010;-76
2021/12/11 14:23:20;;;;;;;15.30;9.32;;;;;;;;;;143737;636;47022;-77
2021/12/11 14:26:09;;;;;;;;;;;;;;;;;;;;;
2021/12/11 14:28:42;;;;;;;15.20;6.15;;;;;;;;;;143737;580;46014;-77
2021/12/11 14:31:25;;;;;;;;;;;;;;;;;;;;;
2021/12/11 14:34:01;;;;;;;8.65;4.82;;;;;;;;;;143739;597;46024;-79
2021/12/11 14:36:36;;;;;;;18.73;7.12;;;;;;;;;;143742;651;46020;-78
2021/12/11 14:39:11;;;;;;;15.20;10.32;;;;;;;;;;143740;582;47021;-78
2021/12/11 14:41:46;;;;;;;11.20;5.95;;;;;;;;;;143739;615;46010;-78
2021/12/11 14:44:20;;;;;;;17.73;8.05;;;;;;;;;;143737;581;47022;-77
2021/12/11 14:47:10;;;;;;;17.58;9.07;;;;;;;;;;143742;591;46010;-78
2021/12/11 14:49:40;;;;;;;25.62;16.98;;;;;;;;;;143739;577;46020;-78
2021/12/11 14:52:08;;;;;;;26.55;11.52;;;;;;;;;;143740;588;46010;-77
2021/12/11 14:54:36;;;;;;;18.58;12.48;;;;;;;;;;143736;588;46021;-78
2021/12/11 14:57:04;;;;;;;20.08;10.75;;;;;;;;;;143737;603;46010;-77
2021/12/11 14:59:41;;;;;;;19.45;10.60;;;;;;;;;;143738;616;46021;-78
2021/12/11 15:02:24;;;;;;;15.35;9.93;;;;;;;;;;143737;577;46012;-79
2021/12/11 15:04:58;;;;;;;26.33;19.10;;;;;;;;;;143739;580;46022;-78
2021/12/11 15:07:28;;;;;;;26.27;17.37;;;;;;;;;;143737;632;47917;-78
2021/12/11 15:09:57;;;;;;;24.42;18.20;;;;;;;;;;143739;579;47020;-79
2021/12/11 15:12:27;;;;;;;18.35;12.93;;;;;;;;;;143741;571;46010;-79
2021/12/11 15:14:54;;;;;;;16.83;9.80;;;;;;;;;;143740;564;47022;-79
2021/12/11 15:17:25;;;;;;;20.15;9.82;;;;;;;;;;143739;572;46010;-77
2021/12/11 15:19:59;;;;;;;21.37;12.88;;;;;;;;;;143741;574;46020;-77
2021/12/11 15:22:31;;;;;;;20.33;11.25;;;;;;;;;;143740;581;46011;-77
2021/12/11 15:25:02;;;;;;;15.82;8.38;;;;;;;;;;143741;580;47023;-77
2021/12/11 15:27:32;;;;;;;19.40;10.70;;;;;;;;;;143737;585;46917;-79
2021/12/11 15:30:11;;;;;;;13.62;8.13;;;;;;;;;;143742;616;46021;-77
2021/12/11 15:32:38;;;;;;;19.65;9.73;;;;;;;;;;143739;588;46012;-79
2021/12/11 15:35:09;;;;;;;17.80;8.68;;;;;;;;;;143738;613;47022;-80
2021/12/11 15:37:38;;;;;;;16.08;6.95;;;;;;;;;;143739;592;46021;-79
2021/12/11 15:40:12;;;;;;;16.92;8.50;;;;;;;;;;143742;597;46020;-78